sensor_id;sensor_type;location;lat;lon;timestamp;temperature;humidity
7564;DHT22;3823;53.586;10.040;2023-11-21T00:02:25;9.30;54.20
7564;DHT22;3823;53.586;10.040;2023-11-21T00:04:50;9.30;49.40
7564;DHT22;3823;53.586;10.040;2023-11-21T00:07:16;9.10;48.20
7564;DHT22;3823;53.586;10.040;2023-11-21T00:09:42;9.10;47.20
7564;DHT22;3823;53.586;10.040;2023-11-21T00:12:10;9.00;33.90
7564;DHT22;3823;53.586;10.040;2023-11-21T00:14:37;8.90;39.10
7564;DHT22;3823;53.586;10.040;2023-11-21T00:17:04;8.80;27.20
7564;DHT22;3823;53.586;10.040;2023-11-21T00:19:30;8.80;34.50
7564;DHT22;3823;53.586;10.040;2023-11-21T00:21:56;8.70;30.00
7564;DHT22;3823;53.586;10.040;2023-11-21T00:24:23;8.70;26.90
7564;DHT22;3823;53.586;10.040;2023-11-21T00:26:50;8.60;34.70
7564;DHT22;3823;53.586;10.040;2023-11-21T00:29:16;8.60;33.40
7564;DHT22;3823;53.586;10.040;2023-11-21T00:31:43;8.60;36.10
7564;DHT22;3823;53.586;10.040;2023-11-21T00:34:11;8.60;34.00
7564;DHT22;3823;53.586;10.040;2023-11-21T00:36:37;8.50;30.90
7564;DHT22;3823;53.586;10.040;2023-11-21T00:39:03;8.50;29.90
7564;DHT22;3823;53.586;10.040;2023-11-21T00:41:29;8.40;26.20
7564;DHT22;3823;53.586;10.040;2023-11-21T00:43:54;8.30;30.60
7564;DHT22;3823;53.586;10.040;2023-11-21T00:46:20;8.30;39.60
7564;DHT22;3823;53.586;10.040;2023-11-21T00:48:46;8.30;37.30
7564;DHT22;3823;53.586;10.040;2023-11-21T00:51:12;8.20;32.00
7564;DHT22;3823;53.586;10.040;2023-11-21T00:53:37;8.20;30.80
7564;DHT22;3823;53.586;10.040;2023-11-21T00:56:03;8.20;37.00
7564;DHT22;3823;53.586;10.040;2023-11-21T00:58:29;8.20;31.60
7564;DHT22;3823;53.586;10.040;2023-11-21T01:00:55;8.20;33.10
7564;DHT22;3823;53.586;10.040;2023-11-21T01:03:21;8.10;37.60
7564;DHT22;3823;53.586;10.040;2023-11-21T01:05:47;8.10;40.70
7564;DHT22;3823;53.586;10.040;2023-11-21T01:08:15;8.10;43.10
7564;DHT22;3823;53.586;10.040;2023-11-21T01:10:40;8.20;42.60
7564;DHT22;3823;53.586;10.040;2023-11-21T01:13:06;8.10;36.00
7564;DHT22;3823;53.586;10.040;2023-11-21T01:15:33;8.10;36.50
7564;DHT22;3823;53.586;10.040;2023-11-21T01:17:58;8.10;39.60
7564;DHT22;3823;53.586;10.040;2023-11-21T01:20:24;8.00;29.70
7564;DHT22;3823;53.586;10.040;2023-11-21T01:22:50;8.00;27.70
7564;DHT22;3823;53.586;10.040;2023-11-21T01:25:15;8.00;27.60
7564;DHT22;3823;53.586;10.040;2023-11-21T01:27:42;8.00;19.70
7564;DHT22;3823;53.586;10.040;2023-11-21T01:30:08;8.00;25.40
7564;DHT22;3823;53.586;10.040;2023-11-21T01:32:36;7.90;17.90
7564;DHT22;3823;53.586;10.040;2023-11-21T01:35:03;7.90;16.90
7564;DHT22;3823;53.586;10.040;2023-11-21T01:37:31;7.80;16.90
7564;DHT22;3823;53.586;10.040;2023-11-21T01:39:57;7.70;15.60
7564;DHT22;3823;53.586;10.040;2023-11-21T01:42:22;7.70;14.60
7564;DHT22;3823;53.586;10.040;2023-11-21T01:44:48;7.80;13.00
7564;DHT22;3823;53.586;10.040;2023-11-21T01:47:14;7.80;6.40
7564;DHT22;3823;53.586;10.040;2023-11-21T01:49:44;7.80;3.60
7564;DHT22;3823;53.586;10.040;2023-11-21T01:52:10;7.90;3.00
7564;DHT22;3823;53.586;10.040;2023-11-21T01:54:37;7.90;1.10
7564;DHT22;3823;53.586;10.040;2023-11-21T01:57:03;7.80;1.00
7564;DHT22;3823;53.586;10.040;2023-11-21T01:59:35;7.80;1.00
7564;DHT22;3823;53.586;10.040;2023-11-21T02:02:02;7.80;1.00
7564;DHT22;3823;53.586;10.040;2023-11-21T02:04:30;7.90;8.30
7564;DHT22;3823;53.586;10.040;2023-11-21T02:06:57;7.90;1.00
7564;DHT22;3823;53.586;10.040;2023-11-21T02:09:26;7.90;1.00
7564;DHT22;3823;53.586;10.040;2023-11-21T02:11:55;7.80;1.00
7564;DHT22;3823;53.586;10.040;2023-11-21T02:14:21;7.90;1.00
7564;DHT22;3823;53.586;10.040;2023-11-21T02:16:49;7.90;1.00
7564;DHT22;3823;53.586;10.040;2023-11-21T02:19:18;7.80;1.00
7564;DHT22;3823;53.586;10.040;2023-11-21T02:21:56;7.80;1.00
7564;DHT22;3823;53.586;10.040;2023-11-21T02:24:23;7.80;1.00
7564;DHT22;3823;53.586;10.040;2023-11-21T02:26:50;7.70;1.00
7564;DHT22;3823;53.586;10.040;2023-11-21T02:29:19;7.70;1.00
7564;DHT22;3823;53.586;10.040;2023-11-21T02:31:47;7.80;1.00
7564;DHT22;3823;53.586;10.040;2023-11-21T02:34:17;7.70;1.00
7564;DHT22;3823;53.586;10.040;2023-11-21T02:36:46;7.70;1.00
7564;DHT22;3823;53.586;10.040;2023-11-21T02:39:15;7.70;1.00
7564;DHT22;3823;53.586;10.040;2023-11-21T02:41:42;7.70;1.00
7564;DHT22;3823;53.586;10.040;2023-11-21T02:44:08;7.70;1.00
7564;DHT22;3823;53.586;10.040;2023-11-21T02:46:34;7.70;1.00
7564;DHT22;3823;53.586;10.040;2023-11-21T02:49:03;7.70;1.00
7564;DHT22;3823;53.586;10.040;2023-11-21T02:51:30;7.80;1.00
7564;DHT22;3823;53.586;10.040;2023-11-21T02:53:56;7.70;1.00
7564;DHT22;3823;53.586;10.040;2023-11-21T02:56:26;7.70;1.00
7564;DHT22;3823;53.586;10.040;2023-11-21T02:58:52;7.70;1.00
7564;DHT22;3823;53.586;10.040;2023-11-21T03:01:17;7.80;1.00
7564;DHT22;3823;53.586;10.040;2023-11-21T03:03:43;7.70;1.00
7564;DHT22;3823;53.586;10.040;2023-11-21T03:06:08;7.70;1.00
7564;DHT22;3823;53.586;10.040;2023-11-21T03:08:34;7.70;1.00
7564;DHT22;3823;53.586;10.040;2023-11-21T03:11:01;7.60;1.00
7564;DHT22;3823;53.586;10.040;2023-11-21T03:13:28;7.70;1.00
7564;DHT22;3823;53.586;10.040;2023-11-21T03:15:54;7.70;1.00
7564;DHT22;3823;53.586;10.040;2023-11-21T03:18:19;7.70;1.00
7564;DHT22;3823;53.586;10.040;2023-11-21T03:20:47;7.70;1.00
7564;DHT22;3823;53.586;10.040;2023-11-21T03:23:13;7.70;1.00
7564;DHT22;3823;53.586;10.040;2023-11-21T03:25:38;7.70;1.00
7564;DHT22;3823;53.586;10.040;2023-11-21T03:28:04;7.70;1.00
7564;DHT22;3823;53.586;10.040;2023-11-21T03:30:29;7.60;1.00
7564;DHT22;3823;53.586;10.040;2023-11-21T03:32:55;7.70;1.00
7564;DHT22;3823;53.586;10.040;2023-11-21T03:35:21;7.70;1.00
7564;DHT22;3823;53.586;10.040;2023-11-21T03:37:47;7.70;1.00
7564;DHT22;3823;53.586;10.040;2023-11-21T03:40:12;7.70;1.00
7564;DHT22;3823;53.586;10.040;2023-11-21T03:42:38;7.70;1.00
7564;DHT22;3823;53.586;10.040;2023-11-21T03:45:05;7.70;1.00
7564;DHT22;3823;53.586;10.040;2023-11-21T03:47:31;7.70;1.00
7564;DHT22;3823;53.586;10.040;2023-11-21T03:49:56;7.80;1.00
7564;DHT22;3823;53.586;10.040;2023-11-21T03:52:22;7.70;1.00
7564;DHT22;3823;53.586;10.040;2023-11-21T03:54:48;7.60;1.00
7564;DHT22;3823;53.586;10.040;2023-11-21T03:57:13;7.70;1.00
7564;DHT22;3823;53.586;10.040;2023-11-21T03:59:42;7.70;1.00
7564;DHT22;3823;53.586;10.040;2023-11-21T04:02:09;7.70;1.00
7564;DHT22;3823;53.586;10.040;2023-11-21T04:04:35;7.70;1.00
7564;DHT22;3823;53.586;10.040;2023-11-21T04:07:01;7.70;1.00
7564;DHT22;3823;53.586;10.040;2023-11-21T04:09:27;7.70;1.00
7564;DHT22;3823;53.586;10.040;2023-11-21T04:11:53;7.80;1.00
7564;DHT22;3823;53.586;10.040;2023-11-21T04:14:19;7.70;1.00
7564;DHT22;3823;53.586;10.040;2023-11-21T04:16:45;7.70;1.00
7564;DHT22;3823;53.586;10.040;2023-11-21T04:19:11;7.60;1.00
7564;DHT22;3823;53.586;10.040;2023-11-21T04:21:37;7.60;1.00
7564;DHT22;3823;53.586;10.040;2023-11-21T04:24:02;7.60;1.00
7564;DHT22;3823;53.586;10.040;2023-11-21T04:26:28;7.70;1.00
7564;DHT22;3823;53.586;10.040;2023-11-21T04:28:54;7.70;1.00
7564;DHT22;3823;53.586;10.040;2023-11-21T04:31:19;7.70;1.00
7564;DHT22;3823;53.586;10.040;2023-11-21T04:33:45;7.60;1.00
7564;DHT22;3823;53.586;10.040;2023-11-21T04:36:10;7.60;1.00
7564;DHT22;3823;53.586;10.040;2023-11-21T04:38:36;7.60;1.00
7564;DHT22;3823;53.586;10.040;2023-11-21T04:41:01;7.50;1.00
7564;DHT22;3823;53.586;10.040;2023-11-21T04:43:27;7.50;1.00
7564;DHT22;3823;53.586;10.040;2023-11-21T04:45:54;7.60;1.00
7564;DHT22;3823;53.586;10.040;2023-11-21T04:48:20;7.50;1.00
7564;DHT22;3823;53.586;10.040;2023-11-21T04:50:45;7.60;1.00
7564;DHT22;3823;53.586;10.040;2023-11-21T04:53:11;7.60;1.00
7564;DHT22;3823;53.586;10.040;2023-11-21T04:55:43;7.60;1.00
7564;DHT22;3823;53.586;10.040;2023-11-21T04:58:09;7.60;1.00
7564;DHT22;3823;53.586;10.040;2023-11-21T05:00:35;7.50;1.00
7564;DHT22;3823;53.586;10.040;2023-11-21T05:03:02;7.50;1.00
7564;DHT22;3823;53.586;10.040;2023-11-21T05:05:28;7.60;1.00
7564;DHT22;3823;53.586;10.040;2023-11-21T05:07:55;7.60;1.00
7564;DHT22;3823;53.586;10.040;2023-11-21T05:10:20;7.60;1.00
7564;DHT22;3823;53.586;10.040;2023-11-21T05:12:47;7.70;1.00
7564;DHT22;3823;53.586;10.040;2023-11-21T05:15:15;7.70;1.00
7564;DHT22;3823;53.586;10.040;2023-11-21T05:17:43;7.60;1.00
7564;DHT22;3823;53.586;10.040;2023-11-21T05:20:14;7.50;1.00
7564;DHT22;3823;53.586;10.040;2023-11-21T05:22:43;7.60;1.00
7564;DHT22;3823;53.586;10.040;2023-11-21T05:25:08;7.60;1.00
7564;DHT22;3823;53.586;10.040;2023-11-21T05:27:35;7.60;1.00
7564;DHT22;3823;53.586;10.040;2023-11-21T05:30:02;7.60;1.00
7564;DHT22;3823;53.586;10.040;2023-11-21T05:32:30;7.70;1.00
7564;DHT22;3823;53.586;10.040;2023-11-21T05:34:56;7.70;1.00
7564;DHT22;3823;53.586;10.040;2023-11-21T05:37:21;7.70;1.00
7564;DHT22;3823;53.586;10.040;2023-11-21T05:39:48;7.70;1.00
7564;DHT22;3823;53.586;10.040;2023-11-21T05:42:14;7.60;1.00
7564;DHT22;3823;53.586;10.040;2023-11-21T05:44:41;7.60;1.00
7564;DHT22;3823;53.586;10.040;2023-11-21T05:47:07;7.50;1.00
7564;DHT22;3823;53.586;10.040;2023-11-21T05:49:33;7.50;1.00
7564;DHT22;3823;53.586;10.040;2023-11-21T05:51:59;7.50;1.00
7564;DHT22;3823;53.586;10.040;2023-11-21T05:54:25;7.60;1.00
7564;DHT22;3823;53.586;10.040;2023-11-21T05:56:51;7.60;1.00
7564;DHT22;3823;53.586;10.040;2023-11-21T05:59:17;7.60;1.00
7564;DHT22;3823;53.586;10.040;2023-11-21T06:01:42;7.60;1.00
7564;DHT22;3823;53.586;10.040;2023-11-21T06:04:08;7.60;1.00
7564;DHT22;3823;53.586;10.040;2023-11-21T06:06:35;7.60;1.00
7564;DHT22;3823;53.586;10.040;2023-11-21T06:09:00;7.60;1.00
7564;DHT22;3823;53.586;10.040;2023-11-21T06:11:26;7.70;1.00
7564;DHT22;3823;53.586;10.040;2023-11-21T06:13:51;7.80;1.00
7564;DHT22;3823;53.586;10.040;2023-11-21T06:16:18;7.80;1.00
7564;DHT22;3823;53.586;10.040;2023-11-21T06:18:45;7.80;1.00
7564;DHT22;3823;53.586;10.040;2023-11-21T06:21:11;7.80;1.00
7564;DHT22;3823;53.586;10.040;2023-11-21T06:23:37;7.70;1.00
7564;DHT22;3823;53.586;10.040;2023-11-21T06:26:03;7.80;1.00
7564;DHT22;3823;53.586;10.040;2023-11-21T06:28:30;7.80;1.00
7564;DHT22;3823;53.586;10.040;2023-11-21T06:30:56;7.80;1.00
7564;DHT22;3823;53.586;10.040;2023-11-21T06:33:23;7.80;1.00
7564;DHT22;3823;53.586;10.040;2023-11-21T06:35:49;7.70;1.00
7564;DHT22;3823;53.586;10.040;2023-11-21T06:38:15;7.70;1.00
7564;DHT22;3823;53.586;10.040;2023-11-21T06:40:40;7.60;1.00
7564;DHT22;3823;53.586;10.040;2023-11-21T06:43:06;7.60;1.00
7564;DHT22;3823;53.586;10.040;2023-11-21T06:45:33;7.60;1.00
7564;DHT22;3823;53.586;10.040;2023-11-21T06:47:59;7.60;1.00
7564;DHT22;3823;53.586;10.040;2023-11-21T06:50:25;7.60;1.00
7564;DHT22;3823;53.586;10.040;2023-11-21T06:52:50;7.60;1.00
7564;DHT22;3823;53.586;10.040;2023-11-21T06:55:16;7.50;1.00
7564;DHT22;3823;53.586;10.040;2023-11-21T06:57:42;7.60;1.00
7564;DHT22;3823;53.586;10.040;2023-11-21T07:00:08;7.60;1.00
7564;DHT22;3823;53.586;10.040;2023-11-21T07:02:34;7.60;1.00
7564;DHT22;3823;53.586;10.040;2023-11-21T07:05:00;7.60;1.00
7564;DHT22;3823;53.586;10.040;2023-11-21T07:07:27;7.70;1.00
7564;DHT22;3823;53.586;10.040;2023-11-21T07:09:52;7.80;1.00
7564;DHT22;3823;53.586;10.040;2023-11-21T07:12:18;7.80;1.00
7564;DHT22;3823;53.586;10.040;2023-11-21T07:14:43;7.80;1.00
7564;DHT22;3823;53.586;10.040;2023-11-21T07:17:11;7.90;1.00
7564;DHT22;3823;53.586;10.040;2023-11-21T07:19:37;7.90;1.00
7564;DHT22;3823;53.586;10.040;2023-11-21T07:22:03;7.80;1.00
7564;DHT22;3823;53.586;10.040;2023-11-21T07:24:30;7.90;1.00
7564;DHT22;3823;53.586;10.040;2023-11-21T07:26:57;7.90;1.00
7564;DHT22;3823;53.586;10.040;2023-11-21T07:29:23;8.00;1.00
7564;DHT22;3823;53.586;10.040;2023-11-21T07:31:51;7.90;1.00
7564;DHT22;3823;53.586;10.040;2023-11-21T07:34:17;8.00;1.00
7564;DHT22;3823;53.586;10.040;2023-11-21T07:36:44;8.00;1.00
7564;DHT22;3823;53.586;10.040;2023-11-21T07:39:10;8.00;1.00
7564;DHT22;3823;53.586;10.040;2023-11-21T07:41:36;8.00;1.00
7564;DHT22;3823;53.586;10.040;2023-11-21T07:44:03;8.10;1.00
7564;DHT22;3823;53.586;10.040;2023-11-21T07:46:29;8.00;1.00
7564;DHT22;3823;53.586;10.040;2023-11-21T07:48:54;8.10;1.00
7564;DHT22;3823;53.586;10.040;2023-11-21T07:51:20;8.10;1.00
7564;DHT22;3823;53.586;10.040;2023-11-21T07:53:46;8.00;1.00
7564;DHT22;3823;53.586;10.040;2023-11-21T07:56:11;8.00;1.00
7564;DHT22;3823;53.586;10.040;2023-11-21T07:58:38;8.00;1.00
7564;DHT22;3823;53.586;10.040;2023-11-21T08:01:04;7.90;1.00
7564;DHT22;3823;53.586;10.040;2023-11-21T08:03:30;7.90;1.00
7564;DHT22;3823;53.586;10.040;2023-11-21T08:05:59;7.90;1.00
7564;DHT22;3823;53.586;10.040;2023-11-21T08:08:25;7.90;1.00
7564;DHT22;3823;53.586;10.040;2023-11-21T08:10:51;7.90;1.00
7564;DHT22;3823;53.586;10.040;2023-11-21T08:13:27;7.90;1.00
7564;DHT22;3823;53.586;10.040;2023-11-21T08:15:57;7.90;1.00
7564;DHT22;3823;53.586;10.040;2023-11-21T08:18:27;7.90;1.00
7564;DHT22;3823;53.586;10.040;2023-11-21T08:20:52;7.90;1.00
7564;DHT22;3823;53.586;10.040;2023-11-21T08:23:20;7.90;1.00
7564;DHT22;3823;53.586;10.040;2023-11-21T08:25:46;8.00;1.00
7564;DHT22;3823;53.586;10.040;2023-11-21T08:28:12;8.00;1.00
7564;DHT22;3823;53.586;10.040;2023-11-21T08:30:39;8.00;1.00
7564;DHT22;3823;53.586;10.040;2023-11-21T08:33:06;8.00;1.00
7564;DHT22;3823;53.586;10.040;2023-11-21T08:35:34;8.10;1.00
7564;DHT22;3823;53.586;10.040;2023-11-21T08:37:59;8.10;1.00
7564;DHT22;3823;53.586;10.040;2023-11-21T08:40:25;8.10;1.00
7564;DHT22;3823;53.586;10.040;2023-11-21T08:42:50;8.20;1.00
7564;DHT22;3823;53.586;10.040;2023-11-21T08:45:18;8.20;1.00
7564;DHT22;3823;53.586;10.040;2023-11-21T08:47:44;8.30;1.00
7564;DHT22;3823;53.586;10.040;2023-11-21T08:50:10;8.20;1.00
7564;DHT22;3823;53.586;10.040;2023-11-21T08:52:38;8.30;1.00
7564;DHT22;3823;53.586;10.040;2023-11-21T08:55:04;8.30;1.00
7564;DHT22;3823;53.586;10.040;2023-11-21T08:57:36;8.30;1.00
7564;DHT22;3823;53.586;10.040;2023-11-21T09:00:03;8.30;1.00
7564;DHT22;3823;53.586;10.040;2023-11-21T09:02:33;8.20;1.00
7564;DHT22;3823;53.586;10.040;2023-11-21T09:04:59;8.20;1.00
7564;DHT22;3823;53.586;10.040;2023-11-21T09:07:28;8.10;1.00
7564;DHT22;3823;53.586;10.040;2023-11-21T09:09:54;8.00;1.00
7564;DHT22;3823;53.586;10.040;2023-11-21T09:12:20;8.00;1.00
7564;DHT22;3823;53.586;10.040;2023-11-21T09:14:46;7.90;1.00
7564;DHT22;3823;53.586;10.040;2023-11-21T09:17:12;8.00;1.00
7564;DHT22;3823;53.586;10.040;2023-11-21T09:19:38;8.10;1.00
7564;DHT22;3823;53.586;10.040;2023-11-21T09:22:04;8.10;1.00
7564;DHT22;3823;53.586;10.040;2023-11-21T09:24:31;8.20;1.00
7564;DHT22;3823;53.586;10.040;2023-11-21T09:26:56;8.20;1.00
7564;DHT22;3823;53.586;10.040;2023-11-21T09:29:22;8.20;1.00
7564;DHT22;3823;53.586;10.040;2023-11-21T09:31:48;8.20;1.00
7564;DHT22;3823;53.586;10.040;2023-11-21T09:34:15;8.20;1.00
7564;DHT22;3823;53.586;10.040;2023-11-21T09:36:40;8.20;1.00
7564;DHT22;3823;53.586;10.040;2023-11-21T09:39:06;8.20;1.00
7564;DHT22;3823;53.586;10.040;2023-11-21T09:41:40;8.20;1.00
7564;DHT22;3823;53.586;10.040;2023-11-21T09:44:13;8.10;1.00
7564;DHT22;3823;53.586;10.040;2023-11-21T09:46:41;8.10;1.00
7564;DHT22;3823;53.586;10.040;2023-11-21T09:49:09;8.10;1.00
7564;DHT22;3823;53.586;10.040;2023-11-21T09:51:39;8.10;1.00
7564;DHT22;3823;53.586;10.040;2023-11-21T09:54:08;8.10;1.00
7564;DHT22;3823;53.586;10.040;2023-11-21T09:56:35;8.10;1.00
7564;DHT22;3823;53.586;10.040;2023-11-21T09:59:03;8.20;1.00
7564;DHT22;3823;53.586;10.040;2023-11-21T10:01:36;8.20;1.00
7564;DHT22;3823;53.586;10.040;2023-11-21T10:04:01;8.20;1.00
7564;DHT22;3823;53.586;10.040;2023-11-21T10:06:28;8.30;1.00
7564;DHT22;3823;53.586;10.040;2023-11-21T10:08:56;8.20;1.00
7564;DHT22;3823;53.586;10.040;2023-11-21T10:11:25;8.30;1.00
7564;DHT22;3823;53.586;10.040;2023-11-21T10:13:54;8.30;1.00
7564;DHT22;3823;53.586;10.040;2023-11-21T10:16:20;8.20;1.00
7564;DHT22;3823;53.586;10.040;2023-11-21T10:18:51;8.30;1.00
7564;DHT22;3823;53.586;10.040;2023-11-21T10:21:18;8.20;1.00
7564;DHT22;3823;53.586;10.040;2023-11-21T10:23:44;8.30;1.00
7564;DHT22;3823;53.586;10.040;2023-11-21T10:26:11;8.20;1.00
7564;DHT22;3823;53.586;10.040;2023-11-21T10:28:54;8.20;1.00
7564;DHT22;3823;53.586;10.040;2023-11-21T10:31:21;8.20;1.00
7564;DHT22;3823;53.586;10.040;2023-11-21T10:33:46;8.10;1.00
7564;DHT22;3823;53.586;10.040;2023-11-21T10:36:12;8.20;1.00
7564;DHT22;3823;53.586;10.040;2023-11-21T10:38:42;8.30;1.00
7564;DHT22;3823;53.586;10.040;2023-11-21T10:41:11;8.30;1.00
7564;DHT22;3823;53.586;10.040;2023-11-21T10:43:38;8.40;1.00
7564;DHT22;3823;53.586;10.040;2023-11-21T10:46:05;8.40;1.00
7564;DHT22;3823;53.586;10.040;2023-11-21T10:48:32;8.50;1.00
7564;DHT22;3823;53.586;10.040;2023-11-21T10:50:58;8.50;1.00
7564;DHT22;3823;53.586;10.040;2023-11-21T10:53:28;8.40;1.00
7564;DHT22;3823;53.586;10.040;2023-11-21T10:56:02;8.30;1.00
7564;DHT22;3823;53.586;10.040;2023-11-21T10:58:30;8.30;1.00
7564;DHT22;3823;53.586;10.040;2023-11-21T11:00:58;8.40;1.00
7564;DHT22;3823;53.586;10.040;2023-11-21T11:03:24;8.50;1.00
7564;DHT22;3823;53.586;10.040;2023-11-21T11:05:50;8.40;1.00
7564;DHT22;3823;53.586;10.040;2023-11-21T11:08:21;8.40;1.00
7564;DHT22;3823;53.586;10.040;2023-11-21T11:10:51;8.30;1.00
7564;DHT22;3823;53.586;10.040;2023-11-21T11:13:18;8.30;1.00
7564;DHT22;3823;53.586;10.040;2023-11-21T11:15:47;8.30;1.00
7564;DHT22;3823;53.586;10.040;2023-11-21T11:18:12;8.20;1.00
7564;DHT22;3823;53.586;10.040;2023-11-21T11:20:39;8.10;1.00
7564;DHT22;3823;53.586;10.040;2023-11-21T11:28:42;8.20;1.00
7564;DHT22;3823;53.586;10.040;2023-11-21T11:31:30;8.20;1.00
7564;DHT22;3823;53.586;10.040;2023-11-21T11:37:03;8.30;1.00
7564;DHT22;3823;53.586;10.040;2023-11-21T11:39:36;8.30;99.90
7564;DHT22;3823;53.586;10.040;2023-11-21T11:42:04;8.40;99.90
7564;DHT22;3823;53.586;10.040;2023-11-21T11:47:29;8.30;99.90
7564;DHT22;3823;53.586;10.040;2023-11-21T11:50:12;8.20;99.90
7564;DHT22;3823;53.586;10.040;2023-11-21T11:52:49;8.20;99.90
7564;DHT22;3823;53.586;10.040;2023-11-21T11:55:21;8.20;99.90
7564;DHT22;3823;53.586;10.040;2023-11-21T11:57:51;8.30;99.90
7564;DHT22;3823;53.586;10.040;2023-11-21T12:00:21;8.20;99.90
7564;DHT22;3823;53.586;10.040;2023-11-21T12:02:58;8.30;99.90
7564;DHT22;3823;53.586;10.040;2023-11-21T12:05:26;8.30;99.90
7564;DHT22;3823;53.586;10.040;2023-11-21T12:07:56;8.30;99.90
7564;DHT22;3823;53.586;10.040;2023-11-21T12:10:28;8.40;99.90
7564;DHT22;3823;53.586;10.040;2023-11-21T12:12:56;8.20;99.90
7564;DHT22;3823;53.586;10.040;2023-11-21T12:15:22;8.30;99.90
7564;DHT22;3823;53.586;10.040;2023-11-21T12:17:49;8.20;99.90
7564;DHT22;3823;53.586;10.040;2023-11-21T12:20:18;8.20;99.90
7564;DHT22;3823;53.586;10.040;2023-11-21T12:22:48;8.20;99.90
7564;DHT22;3823;53.586;10.040;2023-11-21T12:25:15;8.20;99.90
7564;DHT22;3823;53.586;10.040;2023-11-21T12:27:51;8.20;99.90
7564;DHT22;3823;53.586;10.040;2023-11-21T12:30:18;8.10;99.90
7564;DHT22;3823;53.586;10.040;2023-11-21T12:32:47;8.10;99.90
7564;DHT22;3823;53.586;10.040;2023-11-21T12:35:13;8.10;99.90
7564;DHT22;3823;53.586;10.040;2023-11-21T12:37:40;8.00;99.90
7564;DHT22;3823;53.586;10.040;2023-11-21T12:40:07;8.00;1.00
7564;DHT22;3823;53.586;10.040;2023-11-21T12:42:47;8.10;99.90
7564;DHT22;3823;53.586;10.040;2023-11-21T12:47:47;8.10;99.90
7564;DHT22;3823;53.586;10.040;2023-11-21T12:50:20;8.10;99.90
7564;DHT22;3823;53.586;10.040;2023-11-21T12:52:50;8.00;99.90
7564;DHT22;3823;53.586;10.040;2023-11-21T12:55:22;8.00;1.00
7564;DHT22;3823;53.586;10.040;2023-11-21T12:57:50;8.10;1.00
7564;DHT22;3823;53.586;10.040;2023-11-21T13:00:18;8.20;1.00
7564;DHT22;3823;53.586;10.040;2023-11-21T13:02:54;8.20;99.90
7564;DHT22;3823;53.586;10.040;2023-11-21T13:05:30;8.10;1.00
7564;DHT22;3823;53.586;10.040;2023-11-21T13:08:01;8.00;1.00
7564;DHT22;3823;53.586;10.040;2023-11-21T13:10:31;8.00;1.00
7564;DHT22;3823;53.586;10.040;2023-11-21T13:13:02;8.00;1.00
7564;DHT22;3823;53.586;10.040;2023-11-21T13:15:31;7.90;1.00
7564;DHT22;3823;53.586;10.040;2023-11-21T13:17:58;8.00;1.00
7564;DHT22;3823;53.586;10.040;2023-11-21T13:20:24;7.90;1.00
7564;DHT22;3823;53.586;10.040;2023-11-21T13:22:55;7.80;1.00
7564;DHT22;3823;53.586;10.040;2023-11-21T13:25:24;7.90;1.00
7564;DHT22;3823;53.586;10.040;2023-11-21T13:27:55;7.80;1.00
7564;DHT22;3823;53.586;10.040;2023-11-21T13:30:22;7.90;1.00
7564;DHT22;3823;53.586;10.040;2023-11-21T13:32:55;7.80;1.00
7564;DHT22;3823;53.586;10.040;2023-11-21T13:35:27;7.70;1.00
7564;DHT22;3823;53.586;10.040;2023-11-21T13:38:05;7.80;1.00
7564;DHT22;3823;53.586;10.040;2023-11-21T13:40:32;7.90;1.00
7564;DHT22;3823;53.586;10.040;2023-11-21T13:42:59;7.80;1.00
7564;DHT22;3823;53.586;10.040;2023-11-21T13:45:29;7.80;1.00
7564;DHT22;3823;53.586;10.040;2023-11-21T13:47:56;7.70;1.00
7564;DHT22;3823;53.586;10.040;2023-11-21T13:50:25;7.70;1.00
7564;DHT22;3823;53.586;10.040;2023-11-21T13:52:58;7.70;1.00
7564;DHT22;3823;53.586;10.040;2023-11-21T13:55:25;7.70;1.00
7564;DHT22;3823;53.586;10.040;2023-11-21T13:57:51;7.70;1.00
7564;DHT22;3823;53.586;10.040;2023-11-21T14:00:18;7.70;1.00
7564;DHT22;3823;53.586;10.040;2023-11-21T14:03:03;7.60;1.00
7564;DHT22;3823;53.586;10.040;2023-11-21T14:05:33;7.70;1.00
7564;DHT22;3823;53.586;10.040;2023-11-21T14:07:59;7.60;1.00
7564;DHT22;3823;53.586;10.040;2023-11-21T14:10:30;7.60;1.00
7564;DHT22;3823;53.586;10.040;2023-11-21T14:13:18;7.50;1.00
7564;DHT22;3823;53.586;10.040;2023-11-21T14:15:45;7.60;1.00
7564;DHT22;3823;53.586;10.040;2023-11-21T14:18:12;7.60;1.00
7564;DHT22;3823;53.586;10.040;2023-11-21T14:20:40;7.60;1.00
7564;DHT22;3823;53.586;10.040;2023-11-21T14:23:06;7.50;1.00
7564;DHT22;3823;53.586;10.040;2023-11-21T14:25:36;7.50;1.00
7564;DHT22;3823;53.586;10.040;2023-11-21T14:28:03;7.30;1.00
7564;DHT22;3823;53.586;10.040;2023-11-21T14:30:29;7.30;1.00
7564;DHT22;3823;53.586;10.040;2023-11-21T14:32:58;7.30;1.00
7564;DHT22;3823;53.586;10.040;2023-11-21T14:35:23;7.30;1.00
7564;DHT22;3823;53.586;10.040;2023-11-21T14:37:49;7.30;1.00
7564;DHT22;3823;53.586;10.040;2023-11-21T14:40:14;7.20;1.00
7564;DHT22;3823;53.586;10.040;2023-11-21T14:42:42;7.10;1.00
7564;DHT22;3823;53.586;10.040;2023-11-21T14:45:08;7.00;1.00
7564;DHT22;3823;53.586;10.040;2023-11-21T14:47:37;7.00;1.00
7564;DHT22;3823;53.586;10.040;2023-11-21T14:50:04;7.00;1.00
7564;DHT22;3823;53.586;10.040;2023-11-21T14:52:49;7.10;1.00
7564;DHT22;3823;53.586;10.040;2023-11-21T14:55:24;7.20;1.00
7564;DHT22;3823;53.586;10.040;2023-11-21T14:58:18;7.20;1.00
7564;DHT22;3823;53.586;10.040;2023-11-21T15:00:56;7.20;1.00
7564;DHT22;3823;53.586;10.040;2023-11-21T15:03:24;7.20;1.00
7564;DHT22;3823;53.586;10.040;2023-11-21T15:05:56;7.20;1.00
7564;DHT22;3823;53.586;10.040;2023-11-21T15:08:22;7.20;1.00
7564;DHT22;3823;53.586;10.040;2023-11-21T15:10:55;7.20;1.00
7564;DHT22;3823;53.586;10.040;2023-11-21T15:13:21;7.20;1.00
7564;DHT22;3823;53.586;10.040;2023-11-21T15:15:48;7.20;1.00
7564;DHT22;3823;53.586;10.040;2023-11-21T15:18:14;7.10;1.00
7564;DHT22;3823;53.586;10.040;2023-11-21T15:20:40;6.90;1.00
7564;DHT22;3823;53.586;10.040;2023-11-21T15:23:06;6.90;1.00
7564;DHT22;3823;53.586;10.040;2023-11-21T15:25:32;6.60;1.00
7564;DHT22;3823;53.586;10.040;2023-11-21T15:27:59;6.70;1.00
7564;DHT22;3823;53.586;10.040;2023-11-21T15:30:25;6.70;1.00
7564;DHT22;3823;53.586;10.040;2023-11-21T15:32:53;6.70;1.00
7564;DHT22;3823;53.586;10.040;2023-11-21T15:35:20;6.60;1.00
7564;DHT22;3823;53.586;10.040;2023-11-21T15:37:46;6.60;1.00
7564;DHT22;3823;53.586;10.040;2023-11-21T15:40:11;6.60;1.00
7564;DHT22;3823;53.586;10.040;2023-11-21T15:42:39;6.70;1.00
7564;DHT22;3823;53.586;10.040;2023-11-21T15:45:05;6.70;1.00
7564;DHT22;3823;53.586;10.040;2023-11-21T15:47:33;6.70;1.00
7564;DHT22;3823;53.586;10.040;2023-11-21T15:49:58;6.80;1.00
7564;DHT22;3823;53.586;10.040;2023-11-21T15:52:24;6.90;1.00
7564;DHT22;3823;53.586;10.040;2023-11-21T15:54:50;6.80;1.00
7564;DHT22;3823;53.586;10.040;2023-11-21T15:57:15;6.80;1.00
7564;DHT22;3823;53.586;10.040;2023-11-21T15:59:42;6.70;1.00
7564;DHT22;3823;53.586;10.040;2023-11-21T16:02:08;6.80;1.00
7564;DHT22;3823;53.586;10.040;2023-11-21T16:04:36;6.80;1.00
7564;DHT22;3823;53.586;10.040;2023-11-21T16:07:03;6.80;1.00
7564;DHT22;3823;53.586;10.040;2023-11-21T16:09:31;6.90;1.00
7564;DHT22;3823;53.586;10.040;2023-11-21T16:12:00;6.90;1.00
7564;DHT22;3823;53.586;10.040;2023-11-21T16:14:30;6.90;1.00
7564;DHT22;3823;53.586;10.040;2023-11-21T16:17:10;6.90;1.00
7564;DHT22;3823;53.586;10.040;2023-11-21T16:19:38;6.80;1.00
7564;DHT22;3823;53.586;10.040;2023-11-21T16:22:04;6.90;1.00
7564;DHT22;3823;53.586;10.040;2023-11-21T16:24:29;6.90;1.00
7564;DHT22;3823;53.586;10.040;2023-11-21T16:26:56;6.80;1.00
7564;DHT22;3823;53.586;10.040;2023-11-21T16:29:21;6.80;1.00
7564;DHT22;3823;53.586;10.040;2023-11-21T16:31:47;6.80;1.00